sensor_id;sensor_type;location;lat;lon;timestamp;P1;durP1;ratioP1;P2;durP2;ratioP2
64282;SDS011;50497;50.720;-2.084;2023-12-22T00:02:00;6.85;;;1.63;;
64282;SDS011;50497;50.720;-2.084;2023-12-22T00:04:26;7.33;;;1.77;;
64282;SDS011;50497;50.720;-2.084;2023-12-22T00:06:51;6.90;;;1.60;;
64282;SDS011;50497;50.720;-2.084;2023-12-22T00:09:17;7.07;;;1.50;;
64282;SDS011;50497;50.720;-2.084;2023-12-22T00:11:42;7.27;;;1.90;;
64282;SDS011;50497;50.720;-2.084;2023-12-22T00:14:08;6.90;;;1.63;;
64282;SDS011;50497;50.720;-2.084;2023-12-22T00:16:33;6.77;;;1.73;;
64282;SDS011;50497;50.720;-2.084;2023-12-22T00:18:58;5.57;;;1.50;;
64282;SDS011;50497;50.720;-2.084;2023-12-22T00:21:24;6.43;;;1.87;;
64282;SDS011;50497;50.720;-2.084;2023-12-22T00:23:49;6.67;;;1.90;;
64282;SDS011;50497;50.720;-2.084;2023-12-22T00:26:15;10.15;;;4.43;;
64282;SDS011;50497;50.720;-2.084;2023-12-22T00:28:40;6.05;;;1.70;;
64282;SDS011;50497;50.720;-2.084;2023-12-22T00:31:06;7.90;;;2.38;;
64282;SDS011;50497;50.720;-2.084;2023-12-22T00:33:32;5.75;;;1.52;;
64282;SDS011;50497;50.720;-2.084;2023-12-22T00:35:58;4.83;;;1.30;;
64282;SDS011;50497;50.720;-2.084;2023-12-22T00:38:23;7.33;;;2.00;;
64282;SDS011;50497;50.720;-2.084;2023-12-22T00:40:48;6.17;;;1.53;;
64282;SDS011;50497;50.720;-2.084;2023-12-22T00:43:14;7.40;;;1.70;;
64282;SDS011;50497;50.720;-2.084;2023-12-22T00:45:39;6.23;;;1.53;;
64282;SDS011;50497;50.720;-2.084;2023-12-22T00:48:05;5.97;;;1.70;;
64282;SDS011;50497;50.720;-2.084;2023-12-22T00:50:30;7.47;;;1.70;;
64282;SDS011;50497;50.720;-2.084;2023-12-22T00:52:55;6.17;;;1.20;;
64282;SDS011;50497;50.720;-2.084;2023-12-22T00:55:21;5.87;;;1.50;;
64282;SDS011;50497;50.720;-2.084;2023-12-22T00:57:46;7.45;;;2.00;;
64282;SDS011;50497;50.720;-2.084;2023-12-22T01:00:12;6.43;;;1.77;;
64282;SDS011;50497;50.720;-2.084;2023-12-22T01:02:38;5.55;;;1.63;;
64282;SDS011;50497;50.720;-2.084;2023-12-22T01:05:04;8.15;;;2.28;;
64282;SDS011;50497;50.720;-2.084;2023-12-22T01:07:29;6.88;;;1.48;;
64282;SDS011;50497;50.720;-2.084;2023-12-22T01:09:55;8.00;;;2.20;;
64282;SDS011;50497;50.720;-2.084;2023-12-22T01:12:21;7.75;;;1.50;;
64282;SDS011;50497;50.720;-2.084;2023-12-22T01:14:46;17.60;;;7.00;;
64282;SDS011;50497;50.720;-2.084;2023-12-22T01:17:14;8.43;;;2.03;;
64282;SDS011;50497;50.720;-2.084;2023-12-22T01:19:39;4.90;;;1.20;;
64282;SDS011;50497;50.720;-2.084;2023-12-22T01:22:05;5.20;;;1.27;;
64282;SDS011;50497;50.720;-2.084;2023-12-22T01:24:30;4.30;;;1.20;;
64282;SDS011;50497;50.720;-2.084;2023-12-22T01:26:55;5.27;;;1.23;;
64282;SDS011;50497;50.720;-2.084;2023-12-22T01:29:21;5.20;;;1.27;;
64282;SDS011;50497;50.720;-2.084;2023-12-22T01:31:46;4.80;;;1.10;;
64282;SDS011;50497;50.720;-2.084;2023-12-22T01:34:11;4.90;;;1.20;;
64282;SDS011;50497;50.720;-2.084;2023-12-22T01:36:37;5.13;;;1.20;;
64282;SDS011;50497;50.720;-2.084;2023-12-22T01:39:02;5.43;;;1.27;;
64282;SDS011;50497;50.720;-2.084;2023-12-22T01:41:28;6.13;;;1.30;;
64282;SDS011;50497;50.720;-2.084;2023-12-22T01:43:53;6.03;;;1.20;;
64282;SDS011;50497;50.720;-2.084;2023-12-22T01:46:19;4.77;;;1.20;;
64282;SDS011;50497;50.720;-2.084;2023-12-22T01:48:45;5.95;;;1.30;;
64282;SDS011;50497;50.720;-2.084;2023-12-22T01:51:11;4.45;;;1.23;;
64282;SDS011;50497;50.720;-2.084;2023-12-22T01:53:37;5.37;;;1.10;;
64282;SDS011;50497;50.720;-2.084;2023-12-22T01:56:02;4.27;;;1.10;;
64282;SDS011;50497;50.720;-2.084;2023-12-22T01:58:29;4.50;;;1.30;;
64282;SDS011;50497;50.720;-2.084;2023-12-22T02:00:58;6.32;;;1.30;;
64282;SDS011;50497;50.720;-2.084;2023-12-22T02:03:23;4.93;;;1.27;;
64282;SDS011;50497;50.720;-2.084;2023-12-22T02:05:50;4.85;;;1.17;;
64282;SDS011;50497;50.720;-2.084;2023-12-22T02:08:17;6.63;;;1.30;;
64282;SDS011;50497;50.720;-2.084;2023-12-22T02:10:43;4.88;;;1.13;;
64282;SDS011;50497;50.720;-2.084;2023-12-22T02:13:09;5.35;;;1.30;;
64282;SDS011;50497;50.720;-2.084;2023-12-22T02:15:35;5.13;;;1.20;;
64282;SDS011;50497;50.720;-2.084;2023-12-22T02:20:29;5.35;;;1.30;;
64282;SDS011;50497;50.720;-2.084;2023-12-22T02:22:55;6.55;;;1.40;;
64282;SDS011;50497;50.720;-2.084;2023-12-22T02:25:20;5.10;;;1.20;;
64282;SDS011;50497;50.720;-2.084;2023-12-22T02:27:50;4.57;;;1.10;;
64282;SDS011;50497;50.720;-2.084;2023-12-22T02:32:59;5.10;;;1.20;;
64282;SDS011;50497;50.720;-2.084;2023-12-22T02:35:26;6.75;;;1.30;;
64282;SDS011;50497;50.720;-2.084;2023-12-22T02:37:54;6.03;;;1.30;;
64282;SDS011;50497;50.720;-2.084;2023-12-22T02:40:22;6.40;;;1.20;;
64282;SDS011;50497;50.720;-2.084;2023-12-22T02:42:50;5.43;;;1.38;;
64282;SDS011;50497;50.720;-2.084;2023-12-22T02:45:17;4.15;;;1.10;;
64282;SDS011;50497;50.720;-2.084;2023-12-22T02:47:44;4.43;;;1.10;;
64282;SDS011;50497;50.720;-2.084;2023-12-22T02:50:10;4.07;;;1.10;;
64282;SDS011;50497;50.720;-2.084;2023-12-22T02:52:36;4.53;;;1.00;;
64282;SDS011;50497;50.720;-2.084;2023-12-22T02:55:02;4.13;;;1.00;;
64282;SDS011;50497;50.720;-2.084;2023-12-22T02:57:28;3.97;;;1.03;;
64282;SDS011;50497;50.720;-2.084;2023-12-22T02:59:54;4.60;;;1.10;;
64282;SDS011;50497;50.720;-2.084;2023-12-22T03:02:19;4.78;;;1.00;;
64282;SDS011;50497;50.720;-2.084;2023-12-22T03:04:45;2.87;;;0.87;;
64282;SDS011;50497;50.720;-2.084;2023-12-22T03:07:13;5.15;;;1.00;;
64282;SDS011;50497;50.720;-2.084;2023-12-22T03:09:39;3.67;;;1.00;;
64282;SDS011;50497;50.720;-2.084;2023-12-22T03:12:05;3.80;;;0.93;;
64282;SDS011;50497;50.720;-2.084;2023-12-22T03:14:32;4.93;;;1.10;;
64282;SDS011;50497;50.720;-2.084;2023-12-22T03:17:07;4.00;;;0.98;;
64282;SDS011;50497;50.720;-2.084;2023-12-22T03:19:33;4.18;;;1.02;;
64282;SDS011;50497;50.720;-2.084;2023-12-22T03:21:59;4.03;;;0.95;;
64282;SDS011;50497;50.720;-2.084;2023-12-22T03:24:25;4.05;;;0.90;;
64282;SDS011;50497;50.720;-2.084;2023-12-22T03:26:51;4.05;;;1.00;;
64282;SDS011;50497;50.720;-2.084;2023-12-22T03:29:17;3.75;;;0.90;;
64282;SDS011;50497;50.720;-2.084;2023-12-22T03:31:43;3.63;;;1.00;;
64282;SDS011;50497;50.720;-2.084;2023-12-22T03:34:09;4.88;;;1.00;;
64282;SDS011;50497;50.720;-2.084;2023-12-22T03:36:35;3.33;;;0.90;;
64282;SDS011;50497;50.720;-2.084;2023-12-22T03:39:00;4.13;;;1.00;;
64282;SDS011;50497;50.720;-2.084;2023-12-22T03:41:26;3.30;;;0.80;;
64282;SDS011;50497;50.720;-2.084;2023-12-22T03:43:51;3.13;;;0.93;;
64282;SDS011;50497;50.720;-2.084;2023-12-22T03:46:17;4.30;;;1.07;;
64282;SDS011;50497;50.720;-2.084;2023-12-22T03:48:43;4.18;;;0.93;;
64282;SDS011;50497;50.720;-2.084;2023-12-22T03:51:08;5.33;;;1.57;;
64282;SDS011;50497;50.720;-2.084;2023-12-22T03:53:35;2.90;;;1.20;;
64282;SDS011;50497;50.720;-2.084;2023-12-22T03:56:01;4.73;;;1.00;;
64282;SDS011;50497;50.720;-2.084;2023-12-22T03:58:26;1.75;;;0.52;;
64282;SDS011;50497;50.720;-2.084;2023-12-22T04:00:51;0.90;;;0.28;;
64282;SDS011;50497;50.720;-2.084;2023-12-22T04:03:17;3.05;;;0.90;;
64282;SDS011;50497;50.720;-2.084;2023-12-22T04:05:43;2.73;;;0.90;;
64282;SDS011;50497;50.720;-2.084;2023-12-22T04:08:08;3.43;;;0.93;;
64282;SDS011;50497;50.720;-2.084;2023-12-22T04:10:34;3.70;;;1.00;;
64282;SDS011;50497;50.720;-2.084;2023-12-22T04:12:59;3.93;;;1.00;;
64282;SDS011;50497;50.720;-2.084;2023-12-22T04:15:24;3.63;;;1.00;;
64282;SDS011;50497;50.720;-2.084;2023-12-22T04:17:50;2.40;;;0.90;;
64282;SDS011;50497;50.720;-2.084;2023-12-22T04:20:15;4.13;;;1.20;;
64282;SDS011;50497;50.720;-2.084;2023-12-22T04:22:41;3.90;;;1.00;;
64282;SDS011;50497;50.720;-2.084;2023-12-22T04:25:07;3.20;;;1.00;;
64282;SDS011;50497;50.720;-2.084;2023-12-22T04:27:33;3.95;;;1.00;;
64282;SDS011;50497;50.720;-2.084;2023-12-22T04:30:00;4.15;;;1.10;;
64282;SDS011;50497;50.720;-2.084;2023-12-22T04:32:26;3.35;;;1.00;;
64282;SDS011;50497;50.720;-2.084;2023-12-22T04:34:51;3.67;;;1.00;;
64282;SDS011;50497;50.720;-2.084;2023-12-22T04:37:16;3.87;;;1.13;;
64282;SDS011;50497;50.720;-2.084;2023-12-22T04:39:42;4.40;;;1.03;;
64282;SDS011;50497;50.720;-2.084;2023-12-22T04:42:07;4.73;;;1.00;;
64282;SDS011;50497;50.720;-2.084;2023-12-22T04:44:33;3.75;;;1.00;;
64282;SDS011;50497;50.720;-2.084;2023-12-22T04:46:58;4.47;;;1.10;;
64282;SDS011;50497;50.720;-2.084;2023-12-22T04:49:23;4.30;;;1.00;;
64282;SDS011;50497;50.720;-2.084;2023-12-22T04:51:49;4.53;;;1.10;;
64282;SDS011;50497;50.720;-2.084;2023-12-22T04:54:14;0.17;;;0.07;;
64282;SDS011;50497;50.720;-2.084;2023-12-22T04:56:40;4.90;;;1.10;;
64282;SDS011;50497;50.720;-2.084;2023-12-22T04:59:05;4.37;;;1.10;;
64282;SDS011;50497;50.720;-2.084;2023-12-22T05:01:31;4.20;;;1.10;;
64282;SDS011;50497;50.720;-2.084;2023-12-22T05:03:56;3.83;;;1.10;;
64282;SDS011;50497;50.720;-2.084;2023-12-22T05:06:21;4.03;;;1.20;;
64282;SDS011;50497;50.720;-2.084;2023-12-22T05:08:47;4.77;;;1.10;;
64282;SDS011;50497;50.720;-2.084;2023-12-22T05:11:12;3.03;;;1.00;;
64282;SDS011;50497;50.720;-2.084;2023-12-22T05:13:38;3.70;;;1.00;;
64282;SDS011;50497;50.720;-2.084;2023-12-22T05:16:03;4.70;;;1.10;;
64282;SDS011;50497;50.720;-2.084;2023-12-22T05:18:32;4.75;;;1.10;;
64282;SDS011;50497;50.720;-2.084;2023-12-22T05:20:57;5.13;;;1.27;;
64282;SDS011;50497;50.720;-2.084;2023-12-22T05:23:23;4.93;;;1.33;;
64282;SDS011;50497;50.720;-2.084;2023-12-22T05:25:48;4.73;;;1.23;;
64282;SDS011;50497;50.720;-2.084;2023-12-22T05:28:13;4.53;;;1.20;;
64282;SDS011;50497;50.720;-2.084;2023-12-22T05:30:39;5.27;;;1.10;;
64282;SDS011;50497;50.720;-2.084;2023-12-22T05:33:04;6.90;;;1.30;;
64282;SDS011;50497;50.720;-2.084;2023-12-22T05:35:29;6.20;;;1.20;;
64282;SDS011;50497;50.720;-2.084;2023-12-22T05:37:55;5.90;;;1.17;;
64282;SDS011;50497;50.720;-2.084;2023-12-22T05:40:20;5.23;;;1.27;;
64282;SDS011;50497;50.720;-2.084;2023-12-22T05:42:46;5.20;;;1.20;;
64282;SDS011;50497;50.720;-2.084;2023-12-22T05:45:11;6.03;;;1.30;;
64282;SDS011;50497;50.720;-2.084;2023-12-22T05:47:37;5.50;;;1.20;;
64282;SDS011;50497;50.720;-2.084;2023-12-22T05:50:03;0.00;;;0.00;;
64282;SDS011;50497;50.720;-2.084;2023-12-22T05:52:29;5.30;;;1.15;;
64282;SDS011;50497;50.720;-2.084;2023-12-22T05:54:54;6.60;;;1.27;;
64282;SDS011;50497;50.720;-2.084;2023-12-22T05:57:20;7.40;;;1.50;;
64282;SDS011;50497;50.720;-2.084;2023-12-22T05:59:45;6.93;;;1.47;;
64282;SDS011;50497;50.720;-2.084;2023-12-22T06:02:10;6.13;;;1.30;;
64282;SDS011;50497;50.720;-2.084;2023-12-22T06:04:36;6.50;;;1.40;;
64282;SDS011;50497;50.720;-2.084;2023-12-22T06:07:01;7.63;;;1.50;;
64282;SDS011;50497;50.720;-2.084;2023-12-22T06:09:27;7.20;;;1.50;;
64282;SDS011;50497;50.720;-2.084;2023-12-22T06:11:53;5.90;;;1.40;;
64282;SDS011;50497;50.720;-2.084;2023-12-22T06:14:18;7.90;;;1.67;;
64282;SDS011;50497;50.720;-2.084;2023-12-22T06:16:44;5.87;;;1.40;;
64282;SDS011;50497;50.720;-2.084;2023-12-22T06:19:09;7.40;;;1.60;;
64282;SDS011;50497;50.720;-2.084;2023-12-22T06:21:38;6.90;;;1.60;;
64282;SDS011;50497;50.720;-2.084;2023-12-22T06:24:04;6.65;;;1.60;;
64282;SDS011;50497;50.720;-2.084;2023-12-22T06:26:29;7.32;;;1.48;;
64282;SDS011;50497;50.720;-2.084;2023-12-22T06:28:55;6.30;;;1.43;;
64282;SDS011;50497;50.720;-2.084;2023-12-22T06:31:21;7.90;;;1.60;;
64282;SDS011;50497;50.720;-2.084;2023-12-22T06:33:48;7.18;;;1.48;;
64282;SDS011;50497;50.720;-2.084;2023-12-22T06:36:20;7.13;;;1.60;;
64282;SDS011;50497;50.720;-2.084;2023-12-22T06:38:47;6.30;;;1.50;;
64282;SDS011;50497;50.720;-2.084;2023-12-22T06:41:19;7.57;;;1.70;;
64282;SDS011;50497;50.720;-2.084;2023-12-22T06:43:49;9.30;;;1.90;;
64282;SDS011;50497;50.720;-2.084;2023-12-22T06:46:19;8.20;;;1.45;;
64282;SDS011;50497;50.720;-2.084;2023-12-22T06:48:47;9.27;;;1.83;;
64282;SDS011;50497;50.720;-2.084;2023-12-22T06:51:19;8.40;;;1.70;;
64282;SDS011;50497;50.720;-2.084;2023-12-22T06:53:46;8.52;;;1.70;;
64282;SDS011;50497;50.720;-2.084;2023-12-22T06:56:22;0.10;;;0.10;;
64282;SDS011;50497;50.720;-2.084;2023-12-22T06:58:49;9.95;;;2.03;;
64282;SDS011;50497;50.720;-2.084;2023-12-22T07:01:19;8.23;;;1.90;;
64282;SDS011;50497;50.720;-2.084;2023-12-22T07:03:53;10.80;;;2.20;;
64282;SDS011;50497;50.720;-2.084;2023-12-22T07:06:19;10.20;;;2.00;;
64282;SDS011;50497;50.720;-2.084;2023-12-22T07:09:47;10.05;;;2.22;;
64282;SDS011;50497;50.720;-2.084;2023-12-22T07:11:45;10.68;;;2.17;;
64282;SDS011;50497;50.720;-2.084;2023-12-22T07:14:13;12.63;;;2.47;;
64282;SDS011;50497;50.720;-2.084;2023-12-22T07:16:38;10.50;;;2.13;;
64282;SDS011;50497;50.720;-2.084;2023-12-22T07:19:04;11.02;;;2.38;;
64282;SDS011;50497;50.720;-2.084;2023-12-22T07:21:30;11.03;;;2.23;;
64282;SDS011;50497;50.720;-2.084;2023-12-22T07:23:56;10.88;;;2.45;;
64282;SDS011;50497;50.720;-2.084;2023-12-22T07:26:23;12.40;;;2.40;;
64282;SDS011;50497;50.720;-2.084;2023-12-22T07:28:49;11.93;;;2.50;;
64282;SDS011;50497;50.720;-2.084;2023-12-22T07:31:14;12.33;;;2.40;;
64282;SDS011;50497;50.720;-2.084;2023-12-22T07:33:40;11.67;;;2.60;;
64282;SDS011;50497;50.720;-2.084;2023-12-22T07:36:08;12.00;;;2.53;;
64282;SDS011;50497;50.720;-2.084;2023-12-22T07:38:33;11.53;;;2.30;;
64282;SDS011;50497;50.720;-2.084;2023-12-22T07:40:59;11.20;;;2.50;;
64282;SDS011;50497;50.720;-2.084;2023-12-22T07:43:24;11.00;;;2.60;;
64282;SDS011;50497;50.720;-2.084;2023-12-22T07:45:50;12.30;;;2.47;;
64282;SDS011;50497;50.720;-2.084;2023-12-22T07:48:16;14.77;;;2.80;;
64282;SDS011;50497;50.720;-2.084;2023-12-22T07:50:44;10.50;;;2.40;;
64282;SDS011;50497;50.720;-2.084;2023-12-22T07:53:10;12.07;;;2.58;;
64282;SDS011;50497;50.720;-2.084;2023-12-22T07:55:36;12.07;;;2.57;;
64282;SDS011;50497;50.720;-2.084;2023-12-22T07:58:03;1.50;;;0.50;;
64282;SDS011;50497;50.720;-2.084;2023-12-22T08:00:32;12.93;;;3.40;;
64282;SDS011;50497;50.720;-2.084;2023-12-22T08:02:57;13.82;;;2.92;;
64282;SDS011;50497;50.720;-2.084;2023-12-22T08:05:23;12.83;;;2.50;;
64282;SDS011;50497;50.720;-2.084;2023-12-22T08:07:49;12.07;;;2.50;;
64282;SDS011;50497;50.720;-2.084;2023-12-22T08:10:14;10.95;;;2.38;;
64282;SDS011;50497;50.720;-2.084;2023-12-22T08:12:41;11.32;;;2.25;;
64282;SDS011;50497;50.720;-2.084;2023-12-22T08:15:06;12.90;;;3.10;;
64282;SDS011;50497;50.720;-2.084;2023-12-22T08:17:32;14.00;;;3.47;;
64282;SDS011;50497;50.720;-2.084;2023-12-22T08:19:58;11.33;;;2.90;;
64282;SDS011;50497;50.720;-2.084;2023-12-22T08:22:24;10.17;;;2.40;;
64282;SDS011;50497;50.720;-2.084;2023-12-22T08:24:49;13.07;;;2.57;;
64282;SDS011;50497;50.720;-2.084;2023-12-22T08:27:15;10.75;;;2.28;;
64282;SDS011;50497;50.720;-2.084;2023-12-22T08:29:40;14.55;;;3.00;;
64282;SDS011;50497;50.720;-2.084;2023-12-22T08:32:05;12.10;;;2.40;;
64282;SDS011;50497;50.720;-2.084;2023-12-22T08:34:31;12.93;;;2.40;;
64282;SDS011;50497;50.720;-2.084;2023-12-22T08:36:57;13.60;;;2.47;;
64282;SDS011;50497;50.720;-2.084;2023-12-22T08:39:22;11.93;;;2.78;;
64282;SDS011;50497;50.720;-2.084;2023-12-22T08:41:49;10.25;;;2.45;;
64282;SDS011;50497;50.720;-2.084;2023-12-22T08:44:15;12.10;;;2.50;;
64282;SDS011;50497;50.720;-2.084;2023-12-22T08:46:40;14.20;;;2.50;;
64282;SDS011;50497;50.720;-2.084;2023-12-22T08:49:06;11.53;;;2.53;;
64282;SDS011;50497;50.720;-2.084;2023-12-22T08:51:32;13.75;;;2.40;;
64282;SDS011;50497;50.720;-2.084;2023-12-22T08:53:59;11.55;;;2.40;;
64282;SDS011;50497;50.720;-2.084;2023-12-22T08:56:24;12.57;;;2.57;;
64282;SDS011;50497;50.720;-2.084;2023-12-22T08:58:53;13.57;;;2.40;;
64282;SDS011;50497;50.720;-2.084;2023-12-22T09:01:25;11.70;;;2.58;;
64282;SDS011;50497;50.720;-2.084;2023-12-22T09:03:51;0.00;;;0.00;;
64282;SDS011;50497;50.720;-2.084;2023-12-22T09:06:18;12.10;;;2.65;;
64282;SDS011;50497;50.720;-2.084;2023-12-22T09:08:46;10.85;;;2.40;;
64282;SDS011;50497;50.720;-2.084;2023-12-22T09:11:12;10.00;;;2.47;;
64282;SDS011;50497;50.720;-2.084;2023-12-22T09:13:39;10.25;;;2.30;;
64282;SDS011;50497;50.720;-2.084;2023-12-22T09:16:05;12.77;;;2.50;;
64282;SDS011;50497;50.720;-2.084;2023-12-22T09:18:31;13.40;;;3.10;;
64282;SDS011;50497;50.720;-2.084;2023-12-22T09:20:57;1.30;;;0.30;;
64282;SDS011;50497;50.720;-2.084;2023-12-22T09:23:23;10.00;;;2.40;;
64282;SDS011;50497;50.720;-2.084;2023-12-22T09:25:48;12.73;;;2.58;;
64282;SDS011;50497;50.720;-2.084;2023-12-22T09:28:14;11.20;;;2.60;;
64282;SDS011;50497;50.720;-2.084;2023-12-22T09:30:39;0.07;;;0.07;;
64282;SDS011;50497;50.720;-2.084;2023-12-22T09:33:05;14.00;;;2.90;;
64282;SDS011;50497;50.720;-2.084;2023-12-22T09:35:30;13.07;;;2.60;;
64282;SDS011;50497;50.720;-2.084;2023-12-22T09:37:55;11.65;;;2.53;;
64282;SDS011;50497;50.720;-2.084;2023-12-22T09:40:21;12.27;;;2.30;;
64282;SDS011;50497;50.720;-2.084;2023-12-22T09:42:49;12.40;;;2.80;;
64282;SDS011;50497;50.720;-2.084;2023-12-22T09:45:18;12.15;;;3.47;;
64282;SDS011;50497;50.720;-2.084;2023-12-22T09:47:45;13.00;;;2.80;;
64282;SDS011;50497;50.720;-2.084;2023-12-22T09:50:12;12.70;;;2.92;;
64282;SDS011;50497;50.720;-2.084;2023-12-22T09:52:38;12.10;;;2.70;;
64282;SDS011;50497;50.720;-2.084;2023-12-22T09:55:07;14.30;;;2.90;;
64282;SDS011;50497;50.720;-2.084;2023-12-22T09:57:33;10.73;;;2.80;;
64282;SDS011;50497;50.720;-2.084;2023-12-22T10:00:00;13.60;;;2.92;;
64282;SDS011;50497;50.720;-2.084;2023-12-22T10:02:31;13.15;;;2.47;;
64282;SDS011;50497;50.720;-2.084;2023-12-22T10:04:58;13.50;;;3.13;;
64282;SDS011;50497;50.720;-2.084;2023-12-22T10:07:24;17.40;;;4.93;;
64282;SDS011;50497;50.720;-2.084;2023-12-22T10:09:51;14.60;;;3.20;;
64282;SDS011;50497;50.720;-2.084;2023-12-22T10:12:18;14.60;;;3.10;;
64282;SDS011;50497;50.720;-2.084;2023-12-22T10:14:45;13.53;;;2.80;;
64282;SDS011;50497;50.720;-2.084;2023-12-22T10:17:12;13.97;;;2.90;;
64282;SDS011;50497;50.720;-2.084;2023-12-22T10:19:38;14.73;;;2.72;;
64282;SDS011;50497;50.720;-2.084;2023-12-22T10:22:04;12.25;;;2.90;;
64282;SDS011;50497;50.720;-2.084;2023-12-22T10:24:45;14.40;;;3.17;;
64282;SDS011;50497;50.720;-2.084;2023-12-22T10:27:17;13.35;;;2.80;;
64282;SDS011;50497;50.720;-2.084;2023-12-22T10:29:50;11.55;;;2.97;;
64282;SDS011;50497;50.720;-2.084;2023-12-22T10:32:19;0.00;;;0.00;;
64282;SDS011;50497;50.720;-2.084;2023-12-22T10:34:45;10.33;;;2.20;;
64282;SDS011;50497;50.720;-2.084;2023-12-22T10:37:10;11.73;;;2.60;;
64282;SDS011;50497;50.720;-2.084;2023-12-22T10:39:39;0.00;;;0.00;;
64282;SDS011;50497;50.720;-2.084;2023-12-22T10:42:05;10.40;;;2.38;;
64282;SDS011;50497;50.720;-2.084;2023-12-22T10:44:31;0.00;;;0.00;;
64282;SDS011;50497;50.720;-2.084;2023-12-22T10:46:56;0.00;;;0.00;;
64282;SDS011;50497;50.720;-2.084;2023-12-22T10:49:23;0.00;;;0.00;;
64282;SDS011;50497;50.720;-2.084;2023-12-22T10:51:49;8.60;;;3.00;;
64282;SDS011;50497;50.720;-2.084;2023-12-22T10:54:16;12.75;;;2.90;;
64282;SDS011;50497;50.720;-2.084;2023-12-22T10:56:41;11.23;;;2.20;;
64282;SDS011;50497;50.720;-2.084;2023-12-22T10:59:08;10.77;;;2.30;;
64282;SDS011;50497;50.720;-2.084;2023-12-22T11:01:35;11.88;;;2.35;;
64282;SDS011;50497;50.720;-2.084;2023-12-22T11:04:05;11.70;;;2.47;;
64282;SDS011;50497;50.720;-2.084;2023-12-22T11:06:37;13.55;;;2.40;;
64282;SDS011;50497;50.720;-2.084;2023-12-22T11:09:07;10.30;;;2.08;;
64282;SDS011;50497;50.720;-2.084;2023-12-22T11:11:34;10.32;;;2.33;;
64282;SDS011;50497;50.720;-2.084;2023-12-22T11:14:01;12.70;;;3.03;;
64282;SDS011;50497;50.720;-2.084;2023-12-22T11:16:27;11.77;;;2.73;;
64282;SDS011;50497;50.720;-2.084;2023-12-22T11:18:54;10.52;;;2.40;;
64282;SDS011;50497;50.720;-2.084;2023-12-22T11:21:23;11.07;;;2.50;;
64282;SDS011;50497;50.720;-2.084;2023-12-22T11:23:50;1.23;;;0.32;;
64282;SDS011;50497;50.720;-2.084;2023-12-22T11:26:17;4.03;;;0.80;;
64282;SDS011;50497;50.720;-2.084;2023-12-22T11:28:42;11.63;;;2.50;;
64282;SDS011;50497;50.720;-2.084;2023-12-22T11:31:10;9.85;;;2.10;;
64282;SDS011;50497;50.720;-2.084;2023-12-22T11:33:37;10.57;;;2.58;;
64282;SDS011;50497;50.720;-2.084;2023-12-22T11:36:08;7.90;;;1.90;;
64282;SDS011;50497;50.720;-2.084;2023-12-22T11:38:33;9.40;;;1.95;;
64282;SDS011;50497;50.720;-2.084;2023-12-22T11:40:59;7.53;;;1.70;;
64282;SDS011;50497;50.720;-2.084;2023-12-22T11:43:26;11.23;;;2.17;;
64282;SDS011;50497;50.720;-2.084;2023-12-22T11:45:53;3.90;;;1.05;;
64282;SDS011;50497;50.720;-2.084;2023-12-22T11:48:18;9.20;;;2.10;;
64282;SDS011;50497;50.720;-2.084;2023-12-22T11:50:45;9.38;;;1.90;;
64282;SDS011;50497;50.720;-2.084;2023-12-22T11:53:24;10.68;;;1.95;;
64282;SDS011;50497;50.720;-2.084;2023-12-22T11:58:58;7.50;;;1.63;;
64282;SDS011;50497;50.720;-2.084;2023-12-22T12:01:23;0.00;;;0.00;;
64282;SDS011;50497;50.720;-2.084;2023-12-22T12:03:53;7.72;;;1.90;;
64282;SDS011;50497;50.720;-2.084;2023-12-22T12:08:55;8.43;;;1.70;;
64282;SDS011;50497;50.720;-2.084;2023-12-22T12:11:21;9.85;;;2.25;;
64282;SDS011;50497;50.720;-2.084;2023-12-22T12:13:48;9.13;;;1.80;;
64282;SDS011;50497;50.720;-2.084;2023-12-22T12:16:15;6.30;;;1.60;;
64282;SDS011;50497;50.720;-2.084;2023-12-22T12:18:44;9.02;;;2.08;;
64282;SDS011;50497;50.720;-2.084;2023-12-22T12:21:10;8.57;;;1.70;;
64282;SDS011;50497;50.720;-2.084;2023-12-22T12:23:36;9.65;;;2.08;;
64282;SDS011;50497;50.720;-2.084;2023-12-22T12:26:03;8.30;;;2.00;;
64282;SDS011;50497;50.720;-2.084;2023-12-22T12:28:32;8.47;;;1.87;;
64282;SDS011;50497;50.720;-2.084;2023-12-22T12:31:05;7.55;;;1.70;;
64282;SDS011;50497;50.720;-2.084;2023-12-22T12:33:32;7.78;;;1.70;;
64282;SDS011;50497;50.720;-2.084;2023-12-22T12:36:00;8.95;;;1.83;;
64282;SDS011;50497;50.720;-2.084;2023-12-22T12:41:41;8.97;;;1.60;;
64282;SDS011;50497;50.720;-2.084;2023-12-22T12:44:09;8.88;;;2.00;;
64282;SDS011;50497;50.720;-2.084;2023-12-22T12:46:36;8.77;;;1.80;;
64282;SDS011;50497;50.720;-2.084;2023-12-22T12:49:10;7.20;;;1.70;;
64282;SDS011;50497;50.720;-2.084;2023-12-22T12:54:06;7.97;;;1.80;;
64282;SDS011;50497;50.720;-2.084;2023-12-22T12:56:41;9.05;;;1.75;;
64282;SDS011;50497;50.720;-2.084;2023-12-22T12:59:08;7.72;;;1.70;;
64282;SDS011;50497;50.720;-2.084;2023-12-22T13:01:41;7.28;;;1.63;;
64282;SDS011;50497;50.720;-2.084;2023-12-22T13:04:08;6.82;;;1.75;;
64282;SDS011;50497;50.720;-2.084;2023-12-22T13:06:34;7.40;;;1.73;;
64282;SDS011;50497;50.720;-2.084;2023-12-22T13:08:59;7.27;;;2.03;;
64282;SDS011;50497;50.720;-2.084;2023-12-22T13:11:28;7.03;;;1.88;;
64282;SDS011;50497;50.720;-2.084;2023-12-22T13:13:56;6.88;;;1.60;;
64282;SDS011;50497;50.720;-2.084;2023-12-22T13:16:22;7.53;;;1.70;;
64282;SDS011;50497;50.720;-2.084;2023-12-22T13:18:54;5.78;;;1.50;;
64282;SDS011;50497;50.720;-2.084;2023-12-22T13:21:20;7.15;;;1.75;;
64282;SDS011;50497;50.720;-2.084;2023-12-22T13:23:46;5.32;;;1.08;;
64282;SDS011;50497;50.720;-2.084;2023-12-22T13:26:21;7.53;;;1.70;;
64282;SDS011;50497;50.720;-2.084;2023-12-22T13:28:46;8.32;;;1.92;;
64282;SDS011;50497;50.720;-2.084;2023-12-22T13:31:14;7.90;;;1.50;;
64282;SDS011;50497;50.720;-2.084;2023-12-22T13:33:43;7.07;;;1.53;;
64282;SDS011;50497;50.720;-2.084;2023-12-22T13:36:08;7.15;;;1.70;;
64282;SDS011;50497;50.720;-2.084;2023-12-22T13:38:34;6.53;;;1.40;;
64282;SDS011;50497;50.720;-2.084;2023-12-22T13:41:03;8.13;;;1.70;;
64282;SDS011;50497;50.720;-2.084;2023-12-22T13:43:32;7.40;;;1.52;;
64282;SDS011;50497;50.720;-2.084;2023-12-22T13:45:57;7.40;;;1.80;;
64282;SDS011;50497;50.720;-2.084;2023-12-22T13:48:23;7.13;;;1.53;;
64282;SDS011;50497;50.720;-2.084;2023-12-22T13:50:58;8.25;;;1.42;;
64282;SDS011;50497;50.720;-2.084;2023-12-22T13:53:25;6.57;;;1.70;;
64282;SDS011;50497;50.720;-2.084;2023-12-22T13:55:54;7.32;;;1.40;;
64282;SDS011;50497;50.720;-2.084;2023-12-22T13:58:25;7.80;;;1.60;;
64282;SDS011;50497;50.720;-2.084;2023-12-22T14:00:52;7.10;;;1.80;;
64282;SDS011;50497;50.720;-2.084;2023-12-22T14:03:18;6.90;;;1.50;;
64282;SDS011;50497;50.720;-2.084;2023-12-22T14:05:49;6.68;;;1.60;;
64282;SDS011;50497;50.720;-2.084;2023-12-22T14:08:15;7.20;;;1.60;;
64282;SDS011;50497;50.720;-2.084;2023-12-22T14:10:47;6.87;;;1.40;;
64282;SDS011;50497;50.720;-2.084;2023-12-22T14:13:16;6.45;;;1.30;;
64282;SDS011;50497;50.720;-2.084;2023-12-22T14:15:42;7.07;;;1.52;;
64282;SDS011;50497;50.720;-2.084;2023-12-22T14:18:11;5.80;;;1.60;;
64282;SDS011;50497;50.720;-2.084;2023-12-22T14:20:37;6.75;;;1.65;;
64282;SDS011;50497;50.720;-2.084;2023-12-22T14:23:02;5.40;;;1.50;;
64282;SDS011;50497;50.720;-2.084;2023-12-22T14:25:29;7.72;;;1.95;;
64282;SDS011;50497;50.720;-2.084;2023-12-22T14:27:55;7.18;;;1.90;;
64282;SDS011;50497;50.720;-2.084;2023-12-22T14:30:25;7.10;;;1.80;;
64282;SDS011;50497;50.720;-2.084;2023-12-22T14:32:50;8.45;;;1.70;;
64282;SDS011;50497;50.720;-2.084;2023-12-22T14:35:16;6.85;;;1.80;;
64282;SDS011;50497;50.720;-2.084;2023-12-22T14:37:41;6.57;;;1.80;;
64282;SDS011;50497;50.720;-2.084;2023-12-22T14:40:08;6.72;;;1.55;;
64282;SDS011;50497;50.720;-2.084;2023-12-22T14:42:34;7.68;;;1.92;;
64282;SDS011;50497;50.720;-2.084;2023-12-22T14:44:59;6.32;;;1.90;;